Terminal Aerodrome Forecast
Issued by NWS Missoula, MT

Home | Current Version | Previous Version | Text Only | Print | Product List | Glossary On
Versions: 1 2 3 4 5 6 7 8 9 10 11 12 13
959
FTUS45 KMSO 252325
TAFGPI
TAF
KGPI 252325Z 2600/2624 31005KT 6SM -SHRA SCT020 BKN030 OVC035
     FM260300 VRB05KT P6SM VCSH FEW030 OVC060
     FM260800 16006KT P6SM -RA SCT020 OVC040
     FM261100 15005KT 4SM -RA BR BKN020 OVC030
     FM261700 18008KT P6SM -SHRA SCT020 BKN030 OVC040=

USA.gov is the U.S. government's official web portal to all federal, state and local government web resources and services.